sensor_id;sensor_type;location;lat;lon;timestamp;temperature;humidity
1594;DHT22;790;47.000;16.084;2024-02-23T00:05:23;11.70;99.90
1594;DHT22;790;47.000;16.084;2024-02-23T00:11:46;11.70;99.90
1594;DHT22;790;47.000;16.084;2024-02-23T00:18:09;11.60;99.90
1594;DHT22;790;47.000;16.084;2024-02-23T00:24:33;11.60;99.90
1594;DHT22;790;47.000;16.084;2024-02-23T00:35:51;11.60;99.90
1594;DHT22;790;47.000;16.084;2024-02-23T00:42:14;11.40;99.90
1594;DHT22;790;47.000;16.084;2024-02-23T00:48:36;11.50;99.90
1594;DHT22;790;47.000;16.084;2024-02-23T00:54:59;11.50;99.90
1594;DHT22;790;47.000;16.084;2024-02-23T01:01:21;11.50;99.90
1594;DHT22;790;47.000;16.084;2024-02-23T01:07:43;11.50;99.90
1594;DHT22;790;47.000;16.084;2024-02-23T01:14:07;11.50;99.90
1594;DHT22;790;47.000;16.084;2024-02-23T01:20:29;11.40;99.90
1594;DHT22;790;47.000;16.084;2024-02-23T01:26:52;11.40;99.90
1594;DHT22;790;47.000;16.084;2024-02-23T01:37:59;11.50;99.90
1594;DHT22;790;47.000;16.084;2024-02-23T01:44:22;11.50;99.90
1594;DHT22;790;47.000;16.084;2024-02-23T01:50:56;11.50;99.90
1594;DHT22;790;47.000;16.084;2024-02-23T01:57:21;11.30;99.90
1594;DHT22;790;47.000;16.084;2024-02-23T02:03:43;11.30;99.90
1594;DHT22;790;47.000;16.084;2024-02-23T02:10:08;11.30;99.90
1594;DHT22;790;47.000;16.084;2024-02-23T02:16:31;11.20;99.90
1594;DHT22;790;47.000;16.084;2024-02-23T02:22:54;10.90;99.90
1594;DHT22;790;47.000;16.084;2024-02-23T02:29:16;10.90;99.90
1594;DHT22;790;47.000;16.084;2024-02-23T02:40:34;10.60;99.90
1594;DHT22;790;47.000;16.084;2024-02-23T02:46:55;10.60;99.90
1594;DHT22;790;47.000;16.084;2024-02-23T02:53:18;10.60;99.90
1594;DHT22;790;47.000;16.084;2024-02-23T02:59:43;10.60;99.90
1594;DHT22;790;47.000;16.084;2024-02-23T03:06:06;10.70;99.90
1594;DHT22;790;47.000;16.084;2024-02-23T03:12:28;10.70;99.90
1594;DHT22;790;47.000;16.084;2024-02-23T03:18:52;10.60;99.90
1594;DHT22;790;47.000;16.084;2024-02-23T03:25:14;10.60;99.90
1594;DHT22;790;47.000;16.084;2024-02-23T03:31:37;10.60;99.90
1594;DHT22;790;47.000;16.084;2024-02-23T03:42:55;10.40;99.90
1594;DHT22;790;47.000;16.084;2024-02-23T03:49:17;10.40;99.90
1594;DHT22;790;47.000;16.084;2024-02-23T03:55:39;10.40;99.90
1594;DHT22;790;47.000;16.084;2024-02-23T04:02:02;10.40;99.90
1594;DHT22;790;47.000;16.084;2024-02-23T04:08:25;10.40;99.90
1594;DHT22;790;47.000;16.084;2024-02-23T04:14:48;10.40;99.90
1594;DHT22;790;47.000;16.084;2024-02-23T04:21:12;10.30;99.90
1594;DHT22;790;47.000;16.084;2024-02-23T04:27:36;10.40;99.90
1594;DHT22;790;47.000;16.084;2024-02-23T04:33:58;10.40;99.90
1594;DHT22;790;47.000;16.084;2024-02-23T04:45:07;10.40;99.90
1594;DHT22;790;47.000;16.084;2024-02-23T04:51:30;10.40;99.90
1594;DHT22;790;47.000;16.084;2024-02-23T04:57:52;10.40;99.90
1594;DHT22;790;47.000;16.084;2024-02-23T05:04:15;10.30;99.90
1594;DHT22;790;47.000;16.084;2024-02-23T05:10:39;10.40;99.90
1594;DHT22;790;47.000;16.084;2024-02-23T05:17:01;10.30;99.90
1594;DHT22;790;47.000;16.084;2024-02-23T05:23:25;10.40;99.90
1594;DHT22;790;47.000;16.084;2024-02-23T05:29:47;10.30;99.90
1594;DHT22;790;47.000;16.084;2024-02-23T05:36:09;10.20;99.90
1594;DHT22;790;47.000;16.084;2024-02-23T05:47:17;10.30;99.90
1594;DHT22;790;47.000;16.084;2024-02-23T05:53:40;10.30;99.90
1594;DHT22;790;47.000;16.084;2024-02-23T06:00:02;10.20;99.90
1594;DHT22;790;47.000;16.084;2024-02-23T06:06:27;10.20;99.90
1594;DHT22;790;47.000;16.084;2024-02-23T06:12:49;10.30;99.90
1594;DHT22;790;47.000;16.084;2024-02-23T06:19:12;10.30;99.90
1594;DHT22;790;47.000;16.084;2024-02-23T06:25:36;10.20;99.90
1594;DHT22;790;47.000;16.084;2024-02-23T06:31:58;10.20;99.90
1594;DHT22;790;47.000;16.084;2024-02-23T06:38:23;10.20;99.90
1594;DHT22;790;47.000;16.084;2024-02-23T06:49:31;10.30;99.90
1594;DHT22;790;47.000;16.084;2024-02-23T06:55:53;10.30;99.90
1594;DHT22;790;47.000;16.084;2024-02-23T07:02:15;10.30;99.90
1594;DHT22;790;47.000;16.084;2024-02-23T07:08:39;10.40;99.90
1594;DHT22;790;47.000;16.084;2024-02-23T07:15:01;10.40;99.90
1594;DHT22;790;47.000;16.084;2024-02-23T07:21:24;10.40;99.90
1594;DHT22;790;47.000;16.084;2024-02-23T07:27:48;10.50;99.90
1594;DHT22;790;47.000;16.084;2024-02-23T07:34:11;10.50;99.90
1594;DHT22;790;47.000;16.084;2024-02-23T07:40:33;10.70;99.90
1594;DHT22;790;47.000;16.084;2024-02-23T07:51:41;10.80;99.90
1594;DHT22;790;47.000;16.084;2024-02-23T07:58:03;10.80;99.90
1594;DHT22;790;47.000;16.084;2024-02-23T08:04:25;10.80;99.90
1594;DHT22;790;47.000;16.084;2024-02-23T08:10:49;10.90;99.90
1594;DHT22;790;47.000;16.084;2024-02-23T08:17:11;10.90;99.90
1594;DHT22;790;47.000;16.084;2024-02-23T08:23:33;10.80;99.90
1594;DHT22;790;47.000;16.084;2024-02-23T08:29:58;10.90;99.90
1594;DHT22;790;47.000;16.084;2024-02-23T08:36:20;11.00;99.90
1594;DHT22;790;47.000;16.084;2024-02-23T08:42:43;11.00;99.90
1594;DHT22;790;47.000;16.084;2024-02-23T08:53:53;11.10;99.90
1594;DHT22;790;47.000;16.084;2024-02-23T09:00:17;11.10;99.90
1594;DHT22;790;47.000;16.084;2024-02-23T09:06:59;11.10;99.90
1594;DHT22;790;47.000;16.084;2024-02-23T09:13:23;11.10;99.90
1594;DHT22;790;47.000;16.084;2024-02-23T09:19:46;11.10;99.90
1594;DHT22;790;47.000;16.084;2024-02-23T09:26:10;11.20;99.90
1594;DHT22;790;47.000;16.084;2024-02-23T09:32:34;11.20;99.90
1594;DHT22;790;47.000;16.084;2024-02-23T09:38:56;11.20;99.90
1594;DHT22;790;47.000;16.084;2024-02-23T09:45:19;11.20;99.90
1594;DHT22;790;47.000;16.084;2024-02-23T09:56:17;11.10;99.90
1594;DHT22;790;47.000;16.084;2024-02-23T10:02:40;11.10;99.90
1594;DHT22;790;47.000;16.084;2024-02-23T10:09:02;11.10;99.90
1594;DHT22;790;47.000;16.084;2024-02-23T10:15:29;11.20;99.90
1594;DHT22;790;47.000;16.084;2024-02-23T10:21:51;11.20;99.90
1594;DHT22;790;47.000;16.084;2024-02-23T10:28:14;11.20;99.90
1594;DHT22;790;47.000;16.084;2024-02-23T10:34:39;11.30;99.90
1594;DHT22;790;47.000;16.084;2024-02-23T10:41:05;11.20;99.90
1594;DHT22;790;47.000;16.084;2024-02-23T10:47:31;11.30;99.90
1594;DHT22;790;47.000;16.084;2024-02-23T10:58:40;11.20;99.90
1594;DHT22;790;47.000;16.084;2024-02-23T11:05:02;11.20;99.90
1594;DHT22;790;47.000;16.084;2024-02-23T11:11:26;11.20;99.90
1594;DHT22;790;47.000;16.084;2024-02-23T11:17:50;11.30;99.90
1594;DHT22;790;47.000;16.084;2024-02-23T11:24:16;11.20;99.90
1594;DHT22;790;47.000;16.084;2024-02-23T11:30:44;11.20;99.90
1594;DHT22;790;47.000;16.084;2024-02-23T11:37:19;11.20;99.90
1594;DHT22;790;47.000;16.084;2024-02-23T11:43:41;11.50;99.90
1594;DHT22;790;47.000;16.084;2024-02-23T11:50:07;11.60;99.90
1594;DHT22;790;47.000;16.084;2024-02-23T12:01:25;11.70;99.90
1594;DHT22;790;47.000;16.084;2024-02-23T12:07:47;11.70;99.90
1594;DHT22;790;47.000;16.084;2024-02-23T12:14:11;11.70;99.90
1594;DHT22;790;47.000;16.084;2024-02-23T12:20:36;11.60;99.90
1594;DHT22;790;47.000;16.084;2024-02-23T12:26:58;11.60;99.90
1594;DHT22;790;47.000;16.084;2024-02-23T12:33:20;11.70;99.90
1594;DHT22;790;47.000;16.084;2024-02-23T12:39:44;11.70;99.90
1594;DHT22;790;47.000;16.084;2024-02-23T12:46:07;11.80;99.90
1594;DHT22;790;47.000;16.084;2024-02-23T12:52:30;11.80;99.90
1594;DHT22;790;47.000;16.084;2024-02-23T13:03:49;11.70;99.90
1594;DHT22;790;47.000;16.084;2024-02-23T13:10:10;11.70;99.90
1594;DHT22;790;47.000;16.084;2024-02-23T13:16:32;11.70;99.90
1594;DHT22;790;47.000;16.084;2024-02-23T13:22:56;11.70;99.90
1594;DHT22;790;47.000;16.084;2024-02-23T13:29:18;11.80;99.90
1594;DHT22;790;47.000;16.084;2024-02-23T13:35:40;11.90;99.90
1594;DHT22;790;47.000;16.084;2024-02-23T13:42:05;12.10;99.90
1594;DHT22;790;47.000;16.084;2024-02-23T13:48:29;12.10;99.90
1594;DHT22;790;47.000;16.084;2024-02-23T13:54:51;12.20;99.90
1594;DHT22;790;47.000;16.084;2024-02-23T14:06:09;12.30;99.90
1594;DHT22;790;47.000;16.084;2024-02-23T14:12:31;12.40;99.90
1594;DHT22;790;47.000;16.084;2024-02-23T14:18:54;12.40;99.90
1594;DHT22;790;47.000;16.084;2024-02-23T14:25:18;12.40;99.90
1594;DHT22;790;47.000;16.084;2024-02-23T14:31:40;12.50;99.90
1594;DHT22;790;47.000;16.084;2024-02-23T14:38:02;12.40;99.90
1594;DHT22;790;47.000;16.084;2024-02-23T14:44:26;12.40;99.90
1594;DHT22;790;47.000;16.084;2024-02-23T14:50:48;12.40;99.90
1594;DHT22;790;47.000;16.084;2024-02-23T14:57:11;12.40;99.90
1594;DHT22;790;47.000;16.084;2024-02-23T15:08:19;12.30;99.90
1594;DHT22;790;47.000;16.084;2024-02-23T15:14:40;12.30;99.90
1594;DHT22;790;47.000;16.084;2024-02-23T15:21:03;12.20;99.90
1594;DHT22;790;47.000;16.084;2024-02-23T15:27:27;12.10;99.90
1594;DHT22;790;47.000;16.084;2024-02-23T15:33:50;12.10;99.90
1594;DHT22;790;47.000;16.084;2024-02-23T15:40:12;12.10;99.90
1594;DHT22;790;47.000;16.084;2024-02-23T15:46:37;12.00;99.90
1594;DHT22;790;47.000;16.084;2024-02-23T15:53:00;12.00;99.90
1594;DHT22;790;47.000;16.084;2024-02-23T15:59:24;12.00;99.90
1594;DHT22;790;47.000;16.084;2024-02-23T16:10:32;12.00;99.90
1594;DHT22;790;47.000;16.084;2024-02-23T16:16:54;12.00;99.90
1594;DHT22;790;47.000;16.084;2024-02-23T16:23:17;12.10;99.90
1594;DHT22;790;47.000;16.084;2024-02-23T16:29:41;12.10;99.90
1594;DHT22;790;47.000;16.084;2024-02-23T16:36:03;12.10;99.90
1594;DHT22;790;47.000;16.084;2024-02-23T16:42:24;12.10;99.90
1594;DHT22;790;47.000;16.084;2024-02-23T16:48:48;12.10;99.90
1594;DHT22;790;47.000;16.084;2024-02-23T16:55:10;12.10;99.90
1594;DHT22;790;47.000;16.084;2024-02-23T17:01:33;12.00;99.90
1594;DHT22;790;47.000;16.084;2024-02-23T17:12:42;11.90;99.90
1594;DHT22;790;47.000;16.084;2024-02-23T17:19:07;12.00;99.90
1594;DHT22;790;47.000;16.084;2024-02-23T17:25:31;12.00;99.90
1594;DHT22;790;47.000;16.084;2024-02-23T17:31:55;12.00;99.90
1594;DHT22;790;47.000;16.084;2024-02-23T17:38:17;12.00;99.90
1594;DHT22;790;47.000;16.084;2024-02-23T17:44:39;12.10;99.90
1594;DHT22;790;47.000;16.084;2024-02-23T17:51:04;12.00;99.90
1594;DHT22;790;47.000;16.084;2024-02-23T17:57:26;12.00;99.90
1594;DHT22;790;47.000;16.084;2024-02-23T18:03:48;12.00;99.90
1594;DHT22;790;47.000;16.084;2024-02-23T18:14:57;12.00;99.90
1594;DHT22;790;47.000;16.084;2024-02-23T18:21:19;12.00;99.90
1594;DHT22;790;47.000;16.084;2024-02-23T18:27:43;12.00;99.90
1594;DHT22;790;47.000;16.084;2024-02-23T18:34:07;12.10;99.90
1594;DHT22;790;47.000;16.084;2024-02-23T18:40:29;12.10;99.90
1594;DHT22;790;47.000;16.084;2024-02-23T18:46:51;12.10;99.90
1594;DHT22;790;47.000;16.084;2024-02-23T18:53:15;12.10;99.90
1594;DHT22;790;47.000;16.084;2024-02-23T18:59:37;12.00;99.90
1594;DHT22;790;47.000;16.084;2024-02-23T19:06:00;12.00;99.90
1594;DHT22;790;47.000;16.084;2024-02-23T19:16:58;11.80;99.90
1594;DHT22;790;47.000;16.084;2024-02-23T19:23:21;11.40;99.90
1594;DHT22;790;47.000;16.084;2024-02-23T19:29:43;11.30;99.90
1594;DHT22;790;47.000;16.084;2024-02-23T19:36:07;11.30;99.90
1594;DHT22;790;47.000;16.084;2024-02-23T19:42:32;11.30;99.90
1594;DHT22;790;47.000;16.084;2024-02-23T19:48:55;11.40;99.90
1594;DHT22;790;47.000;16.084;2024-02-23T19:55:20;11.50;99.90
1594;DHT22;790;47.000;16.084;2024-02-23T20:01:43;11.60;99.90
1594;DHT22;790;47.000;16.084;2024-02-23T20:08:07;11.70;99.90
1594;DHT22;790;47.000;16.084;2024-02-23T20:19:06;11.90;99.90
1594;DHT22;790;47.000;16.084;2024-02-23T20:25:29;12.00;99.90
1594;DHT22;790;47.000;16.084;2024-02-23T20:31:51;12.00;99.90
1594;DHT22;790;47.000;16.084;2024-02-23T20:38:14;11.90;99.90
1594;DHT22;790;47.000;16.084;2024-02-23T20:44:36;12.00;99.90
1594;DHT22;790;47.000;16.084;2024-02-23T20:50:58;12.10;99.90
1594;DHT22;790;47.000;16.084;2024-02-23T20:57:25;12.10;99.90
1594;DHT22;790;47.000;16.084;2024-02-23T21:03:47;12.00;99.90
1594;DHT22;790;47.000;16.084;2024-02-23T21:10:10;12.00;99.90
1594;DHT22;790;47.000;16.084;2024-02-23T21:21:17;11.70;99.90
1594;DHT22;790;47.000;16.084;2024-02-23T21:27:40;11.70;99.90
1594;DHT22;790;47.000;16.084;2024-02-23T21:34:03;11.70;99.90
1594;DHT22;790;47.000;16.084;2024-02-23T21:40:26;11.80;99.90
1594;DHT22;790;47.000;16.084;2024-02-23T21:46:48;11.70;99.90
1594;DHT22;790;47.000;16.084;2024-02-23T21:53:40;11.40;99.90
1594;DHT22;790;47.000;16.084;2024-02-23T22:00:04;11.40;99.90
1594;DHT22;790;47.000;16.084;2024-02-23T22:06:35;11.20;99.90
1594;DHT22;790;47.000;16.084;2024-02-23T22:12:57;11.20;99.90
1594;DHT22;790;47.000;16.084;2024-02-23T22:24:15;11.20;99.90
1594;DHT22;790;47.000;16.084;2024-02-23T22:30:38;11.00;99.90
1594;DHT22;790;47.000;16.084;2024-02-23T22:36:59;11.10;99.90
1594;DHT22;790;47.000;16.084;2024-02-23T22:43:23;11.10;99.90
1594;DHT22;790;47.000;16.084;2024-02-23T22:49:48;11.20;99.90
1594;DHT22;790;47.000;16.084;2024-02-23T22:56:10;11.20;99.90
1594;DHT22;790;47.000;16.084;2024-02-23T23:02:33;11.00;99.90
1594;DHT22;790;47.000;16.084;2024-02-23T23:08:56;11.00;99.90
1594;DHT22;790;47.000;16.084;2024-02-23T23:15:18;11.00;99.90
1594;DHT22;790;47.000;16.084;2024-02-23T23:26:25;10.80;99.90
1594;DHT22;790;47.000;16.084;2024-02-23T23:32:47;10.90;99.90
1594;DHT22;790;47.000;16.084;2024-02-23T23:39:09;11.00;99.90
1594;DHT22;790;47.000;16.084;2024-02-23T23:45:32;11.10;99.90
1594;DHT22;790;47.000;16.084;2024-02-23T23:51:55;11.00;99.90
1594;DHT22;790;47.000;16.084;2024-02-23T23:58:18;11.10;99.90
